createdAt,value
2019-04-01T00:00:51.290Z,21.84
2019-04-01T00:01:51.273Z,21.84
2019-04-01T00:02:51.433Z,21.84
2019-04-01T00:03:51.252Z,21.86
2019-04-01T00:04:51.239Z,21.82
2019-04-01T00:05:51.233Z,21.86
2019-04-01T00:06:51.219Z,21.83
2019-04-01T00:07:51.206Z,21.80
2019-04-01T00:08:51.273Z,21.84
2019-04-01T00:09:51.196Z,21.90
2019-04-01T00:10:51.178Z,21.83
2019-04-01T00:11:51.165Z,21.88
2019-04-01T00:12:51.156Z,21.91
2019-04-01T00:13:51.149Z,21.84
2019-04-01T00:14:51.174Z,21.83
2019-04-01T00:16:01.535Z,21.88
2019-04-01T00:16:51.109Z,21.84
2019-04-01T00:17:51.099Z,21.91
2019-04-01T00:19:02.335Z,21.86
2019-04-01T00:19:52.123Z,21.86
2019-04-01T00:20:51.069Z,21.88
2019-04-01T00:21:51.057Z,21.90
2019-04-01T00:22:51.190Z,21.91
2019-04-01T00:23:51.040Z,21.82
2019-04-01T00:24:51.024Z,21.91
2019-04-01T00:25:51.053Z,21.84
2019-04-01T00:26:51.006Z,21.83
2019-04-01T00:27:50.991Z,21.90
2019-04-01T00:28:50.985Z,21.90
2019-04-01T00:29:50.974Z,21.90
2019-04-01T00:30:50.959Z,21.86
2019-04-01T00:31:50.958Z,21.84
2019-04-01T00:32:50.937Z,21.90
2019-04-01T00:33:50.930Z,21.86
2019-04-01T00:34:50.919Z,21.92
2019-04-01T00:35:50.916Z,21.86
2019-04-01T00:36:50.931Z,21.82
2019-04-01T00:37:50.887Z,21.94
2019-04-01T00:38:50.873Z,21.84
2019-04-01T00:39:50.867Z,21.83
2019-04-01T00:40:50.851Z,21.83
2019-04-01T00:41:50.838Z,21.91
2019-04-01T00:42:50.837Z,21.86
2019-04-01T00:43:50.850Z,21.92
2019-04-01T00:44:50.813Z,21.86
2019-04-01T00:45:50.799Z,21.90
2019-04-01T00:47:00.666Z,21.84
2019-04-01T00:47:50.779Z,21.90
2019-04-01T00:48:50.767Z,21.88
2019-04-01T00:49:50.795Z,21.90
2019-04-01T00:50:50.748Z,21.90
2019-04-01T00:51:50.732Z,21.83
2019-04-01T00:52:50.718Z,21.83
2019-04-01T00:53:50.711Z,21.90
2019-04-01T00:54:50.695Z,21.84
2019-04-01T00:55:50.731Z,21.90
2019-04-01T00:56:50.673Z,21.84
2019-04-01T00:57:50.663Z,21.91
2019-04-01T00:58:50.651Z,21.92
2019-04-01T00:59:50.647Z,21.83
2019-04-01T01:00:50.633Z,21.80
2019-04-01T01:01:50.628Z,21.91
2019-04-01T01:02:50.612Z,21.83
2019-04-01T01:03:50.602Z,21.91
2019-04-01T01:04:50.588Z,21.82
2019-04-01T01:05:50.606Z,21.83
2019-04-01T01:06:50.569Z,21.90
2019-04-01T01:07:50.560Z,21.92
2019-04-01T01:08:50.545Z,21.84
2019-04-01T01:09:50.533Z,21.94
2019-04-01T01:10:50.521Z,21.90
2019-04-01T01:11:50.686Z,21.82
2019-04-01T01:12:50.500Z,21.86
2019-04-01T01:13:50.492Z,21.88
2019-04-01T01:14:50.478Z,21.91
2019-04-01T01:15:50.476Z,21.83
2019-04-01T01:16:50.458Z,21.92
2019-04-01T01:18:01.859Z,21.90
2019-04-01T01:18:50.442Z,21.88
2019-04-01T01:19:50.426Z,21.88
2019-04-01T01:20:50.412Z,21.82
2019-04-01T01:21:50.411Z,21.88
2019-04-01T01:22:50.389Z,21.82
2019-04-01T01:23:50.556Z,21.82
2019-04-01T01:24:50.367Z,21.80
2019-04-01T01:25:50.358Z,21.83
2019-04-01T01:26:50.348Z,21.79
2019-04-01T01:27:50.337Z,21.80
2019-04-01T01:28:50.333Z,21.84
2019-04-01T01:29:50.324Z,21.84
2019-04-01T01:30:50.302Z,21.80
2019-04-01T01:31:50.296Z,21.84
2019-04-01T01:32:50.281Z,21.88
2019-04-01T01:33:50.294Z,21.90
2019-04-01T01:34:50.258Z,21.83
2019-04-01T01:35:50.250Z,21.83
2019-04-01T01:36:50.241Z,21.88
2019-04-01T01:37:50.233Z,21.90
2019-04-01T01:38:50.218Z,21.86
2019-04-01T01:39:50.245Z,21.83
2019-04-01T01:40:50.192Z,21.82
2019-04-01T01:41:50.187Z,21.90
2019-04-01T01:42:50.173Z,21.84
2019-04-01T01:43:50.162Z,21.83
2019-04-01T01:44:50.153Z,21.86
2019-04-01T01:45:50.147Z,21.94
2019-04-01T01:46:50.133Z,21.80
2019-04-01T01:47:50.120Z,21.84
2019-04-01T01:49:00.624Z,21.82
2019-04-01T01:49:50.101Z,21.83
2019-04-01T01:50:50.218Z,21.84
2019-04-01T01:51:50.081Z,21.82
2019-04-01T01:52:50.065Z,21.90
2019-04-01T01:53:50.053Z,21.84
2019-04-01T01:54:50.123Z,21.77
2019-04-01T01:55:50.031Z,21.86
2019-04-01T01:56:50.033Z,21.86
2019-04-01T01:57:50.013Z,21.88
2019-04-01T01:58:49.998Z,21.83
2019-04-01T01:59:49.986Z,21.80
2019-04-01T02:00:50.146Z,21.83
2019-04-01T02:01:49.971Z,21.86
2019-04-01T02:02:49.955Z,21.82
2019-04-01T02:03:49.950Z,21.84
2019-04-01T02:04:49.981Z,21.82
2019-04-01T02:05:49.921Z,21.80
2019-04-01T02:06:49.954Z,21.86
2019-04-01T02:07:49.902Z,21.84
2019-04-01T02:08:49.888Z,21.80
2019-04-01T02:09:49.882Z,21.83
2019-04-01T02:10:49.869Z,21.80
2019-04-01T02:11:49.919Z,21.82
2019-04-01T02:12:49.866Z,21.83
2019-04-01T02:13:49.843Z,21.79
2019-04-01T02:14:49.830Z,21.80
2019-04-01T02:15:49.815Z,21.83
2019-04-01T02:16:49.807Z,21.86
2019-04-01T02:17:49.792Z,21.84
2019-04-01T02:18:49.793Z,21.82
2019-04-01T02:20:01.941Z,21.90
2019-04-01T02:20:49.764Z,21.84
2019-04-01T02:21:49.755Z,21.83
2019-04-01T02:22:49.744Z,21.75
2019-04-01T02:23:49.734Z,21.83
2019-04-01T02:24:49.725Z,21.80
2019-04-01T02:25:49.884Z,21.80
2019-04-01T02:26:49.693Z,21.88
2019-04-01T02:27:49.689Z,21.79
2019-04-01T02:28:49.680Z,21.83
2019-04-01T02:29:49.668Z,21.83
2019-04-01T02:30:49.659Z,21.80
2019-04-01T02:31:49.654Z,21.82
2019-04-01T02:32:49.635Z,21.82
2019-04-01T02:33:49.620Z,21.84
2019-04-01T02:34:49.658Z,21.80
2019-04-01T02:35:49.621Z,21.80
2019-04-01T02:36:49.613Z,21.88
2019-04-01T02:37:49.581Z,21.84
2019-04-01T02:38:49.571Z,21.84
2019-04-01T02:39:49.553Z,21.80
2019-04-01T02:40:49.554Z,21.79
2019-04-01T02:41:49.534Z,21.83
2019-04-01T02:42:49.534Z,21.82
2019-04-01T02:43:49.510Z,21.83
2019-04-01T02:44:49.505Z,21.80
2019-04-01T02:45:49.485Z,21.83
2019-04-01T02:46:49.480Z,21.75
2019-04-01T02:47:49.643Z,21.80
2019-04-01T02:48:49.607Z,21.86
2019-04-01T02:49:49.445Z,21.82
2019-04-01T02:51:00.283Z,21.80
2019-04-01T02:51:49.423Z,21.83
2019-04-01T02:52:49.416Z,21.79
2019-04-01T02:53:49.418Z,21.84
2019-04-01T02:54:49.395Z,21.91
2019-04-01T02:55:49.383Z,21.83
2019-04-01T02:56:49.374Z,21.83
2019-04-01T02:57:49.365Z,21.83
2019-04-01T02:58:49.348Z,21.80
2019-04-01T02:59:49.344Z,21.86
2019-04-01T03:00:49.342Z,21.86
2019-04-01T03:01:49.314Z,21.84
2019-04-01T03:02:49.307Z,21.80
2019-04-01T03:03:49.292Z,21.88
2019-04-01T03:04:49.455Z,21.83
2019-04-01T03:05:49.295Z,21.77
2019-04-01T03:06:49.263Z,21.84
2019-04-01T03:07:49.261Z,21.86
2019-04-01T03:08:49.247Z,21.91
2019-04-01T03:09:49.232Z,21.86
2019-04-01T03:10:49.223Z,21.80
2019-04-01T03:11:49.206Z,21.84
2019-04-01T03:12:49.199Z,21.92
2019-04-01T03:13:49.189Z,21.86
2019-04-01T03:14:49.171Z,21.82
2019-04-01T03:15:49.207Z,21.92
2019-04-01T03:16:49.156Z,21.91
2019-04-01T03:17:49.145Z,21.90
2019-04-01T03:18:49.130Z,21.86
2019-04-01T03:19:49.122Z,21.99
2019-04-01T03:20:49.109Z,21.96
2019-04-01T03:22:00.082Z,21.91
2019-04-01T03:22:49.206Z,21.91
2019-04-01T03:23:49.212Z,21.92
2019-04-01T03:24:49.069Z,21.90
2019-04-01T03:25:49.049Z,21.90
2019-04-01T03:26:49.036Z,21.90
2019-04-01T03:27:49.067Z,21.96
2019-04-01T03:28:49.037Z,21.90
2019-04-01T03:29:49.006Z,21.86
2019-04-01T03:30:49.026Z,21.86
2019-04-01T03:31:48.982Z,21.90
2019-04-01T03:32:48.974Z,21.98
2019-04-01T03:33:48.967Z,21.99
2019-04-01T03:34:48.949Z,21.92
2019-04-01T03:35:48.937Z,21.96
2019-04-01T03:36:48.926Z,21.91
2019-04-01T03:37:48.973Z,22.02
2019-04-01T03:38:48.907Z,21.92
2019-04-01T03:39:48.895Z,21.90
2019-04-01T03:40:49.509Z,21.96
2019-04-01T03:41:48.880Z,21.91
2019-04-01T03:42:48.865Z,21.92
2019-04-01T03:43:49.018Z,21.88
2019-04-01T03:44:48.845Z,21.91
2019-04-01T03:45:48.827Z,21.98
2019-04-01T03:46:48.818Z,21.86
2019-04-01T03:47:48.810Z,21.98
2019-04-01T03:48:48.803Z,21.90
2019-04-01T03:49:48.860Z,21.94
2019-04-01T03:50:48.772Z,21.91
2019-04-01T03:51:48.767Z,21.92
2019-04-01T03:52:58.808Z,21.92
2019-04-01T03:53:48.739Z,21.88
2019-04-01T03:54:48.735Z,21.92
2019-04-01T03:55:48.725Z,21.82
2019-04-01T03:56:48.713Z,21.83
2019-04-01T03:57:48.698Z,21.83
2019-04-01T03:58:48.684Z,21.80
2019-04-01T03:59:48.758Z,21.83
2019-04-01T04:00:48.673Z,21.86
2019-04-01T04:01:48.658Z,21.88
2019-04-01T04:02:48.644Z,21.84
2019-04-01T04:03:48.645Z,21.91
2019-04-01T04:04:48.625Z,21.84
2019-04-01T04:05:48.630Z,21.84
2019-04-01T04:06:48.612Z,21.90
2019-04-01T04:07:48.586Z,21.88
2019-04-01T04:08:48.580Z,21.86
2019-04-01T04:09:48.571Z,21.83
2019-04-01T04:10:48.555Z,21.82
2019-04-01T04:11:48.553Z,21.86
2019-04-01T04:12:48.533Z,21.86
2019-04-01T04:13:48.525Z,21.86
2019-04-01T04:14:51.064Z,21.96
2019-04-01T04:15:48.505Z,21.84
2019-04-01T04:16:48.566Z,21.82
2019-04-01T04:17:48.481Z,21.92
2019-04-01T04:18:48.468Z,21.77
2019-04-01T04:19:48.459Z,21.84
2019-04-01T04:20:48.452Z,21.83
2019-04-01T04:21:48.484Z,21.88
2019-04-01T04:22:48.427Z,21.86
2019-04-01T04:23:58.995Z,21.90
2019-04-01T04:24:48.403Z,21.84
2019-04-01T04:25:48.394Z,21.86
2019-04-01T04:26:48.383Z,21.83
2019-04-01T04:27:48.391Z,21.83
2019-04-01T04:28:48.358Z,21.84
2019-04-01T04:29:48.348Z,21.83
2019-04-01T04:30:48.338Z,21.83
2019-04-01T04:31:48.333Z,21.80
2019-04-01T04:32:48.323Z,21.83
2019-04-01T04:33:48.342Z,21.83
2019-04-01T04:34:48.302Z,21.84
2019-04-01T04:35:48.287Z,21.79
2019-04-01T04:36:48.271Z,21.84
2019-04-01T04:37:48.263Z,21.80
2019-04-01T04:38:48.257Z,21.80
2019-04-01T04:39:48.413Z,21.84
2019-04-01T04:40:48.238Z,21.84
2019-04-01T04:41:48.218Z,21.86
2019-04-01T04:42:48.211Z,21.82
2019-04-01T04:43:48.196Z,21.80
2019-04-01T04:44:48.189Z,21.84
2019-04-01T04:45:48.189Z,21.86
2019-04-01T04:46:48.163Z,21.83
2019-04-01T04:47:48.167Z,21.80
2019-04-01T04:48:48.152Z,21.88
2019-04-01T04:49:48.130Z,21.83
2019-04-01T04:50:48.298Z,21.80
2019-04-01T04:51:48.115Z,21.83
2019-04-01T04:52:48.107Z,21.84
2019-04-01T04:53:48.086Z,21.80
2019-04-01T04:55:00.058Z,21.86
2019-04-01T04:55:48.073Z,21.83
2019-04-01T04:56:48.067Z,21.83
2019-04-01T04:57:48.046Z,21.83
2019-04-01T04:58:48.032Z,21.82
2019-04-01T04:59:48.023Z,21.83
2019-04-01T05:00:48.020Z,21.83
2019-04-01T05:01:48.017Z,21.80
2019-04-01T05:02:47.995Z,21.83
2019-04-01T05:03:47.979Z,21.77
2019-04-01T05:04:47.968Z,21.80
2019-04-01T05:05:47.965Z,21.83
2019-04-01T05:06:47.961Z,21.75
2019-04-01T05:07:47.950Z,21.77
2019-04-01T05:08:47.923Z,21.82
2019-04-01T05:09:47.912Z,21.83
2019-04-01T05:10:47.907Z,21.80
2019-04-01T05:11:47.897Z,21.80
2019-04-01T05:12:47.890Z,21.77
2019-04-01T05:13:47.872Z,21.80
2019-04-01T05:14:47.859Z,21.79
2019-04-01T05:15:47.847Z,21.83
2019-04-01T05:16:47.836Z,21.77
2019-04-01T05:17:47.835Z,21.80
2019-04-01T05:18:47.856Z,21.84
2019-04-01T05:19:47.835Z,21.80
2019-04-01T05:20:47.860Z,21.80
2019-04-01T05:21:47.787Z,21.74
2019-04-01T05:22:47.770Z,21.75
2019-04-01T05:23:47.768Z,21.82
2019-04-01T05:24:47.765Z,21.80
2019-04-01T05:25:58.102Z,21.80
2019-04-01T05:26:47.731Z,21.83
2019-04-01T05:27:47.717Z,21.80
2019-04-01T05:28:47.714Z,21.82
2019-04-01T05:29:47.736Z,21.86
2019-04-01T05:30:47.690Z,21.77
2019-04-01T05:31:47.677Z,21.79
2019-04-01T05:32:47.669Z,21.80
2019-04-01T05:33:55.235Z,21.77
2019-04-01T05:34:48.690Z,21.79
2019-04-01T05:35:47.632Z,21.79
2019-04-01T05:36:47.619Z,21.83
2019-04-01T05:37:47.609Z,21.77
2019-04-01T05:38:47.603Z,21.86
2019-04-01T05:39:47.589Z,21.82
2019-04-01T05:40:47.621Z,21.86
2019-04-01T05:41:47.565Z,21.84
2019-04-01T05:42:47.554Z,21.80
2019-04-01T05:43:47.551Z,21.82
2019-04-01T05:44:47.533Z,21.84
2019-04-01T05:45:47.520Z,21.86
2019-04-01T05:46:47.520Z,21.74
2019-04-01T05:47:47.503Z,21.84
2019-04-01T05:48:47.492Z,21.80
2019-04-01T05:49:47.476Z,21.84
2019-04-01T05:50:47.483Z,21.80
2019-04-01T05:51:47.454Z,21.77
2019-04-01T05:52:47.445Z,21.83
2019-04-01T05:53:47.436Z,21.80
2019-04-01T05:54:47.427Z,21.75
2019-04-01T05:55:47.415Z,21.83
2019-04-01T05:56:57.721Z,21.80
2019-04-01T05:57:47.392Z,21.80
2019-04-01T05:58:47.382Z,21.79
2019-04-01T05:59:47.364Z,21.83
2019-04-01T06:00:47.355Z,21.77
2019-04-01T06:01:47.381Z,21.80
2019-04-01T06:02:47.332Z,21.79
2019-04-01T06:03:47.330Z,21.82
2019-04-01T06:04:47.310Z,21.84
2019-04-01T06:05:47.302Z,21.80
2019-04-01T06:06:48.935Z,21.82
2019-04-01T06:07:47.298Z,21.80
2019-04-01T06:08:47.267Z,21.77
2019-04-01T06:09:47.258Z,21.77
2019-04-01T06:10:47.247Z,21.86
2019-04-01T06:11:47.239Z,21.80
2019-04-01T06:12:47.223Z,21.82
2019-04-01T06:13:47.226Z,21.80
2019-04-01T06:14:47.203Z,21.80
2019-04-01T06:15:47.196Z,21.86
2019-04-01T06:16:47.182Z,21.80
2019-04-01T06:17:47.173Z,21.80
2019-04-01T06:18:47.199Z,21.84
2019-04-01T06:19:47.237Z,21.82
2019-04-01T06:20:47.142Z,21.80
2019-04-01T06:21:47.126Z,21.80
2019-04-01T06:22:47.114Z,21.79
2019-04-01T06:23:47.105Z,21.80
2019-04-01T06:24:47.111Z,21.82
2019-04-01T06:25:47.091Z,21.80
2019-04-01T06:26:47.081Z,21.83
2019-04-01T06:27:57.953Z,21.86
2019-04-01T06:28:47.060Z,21.83
2019-04-01T06:29:47.046Z,21.82
2019-04-01T06:30:47.071Z,21.80
2019-04-01T06:31:47.024Z,21.88
2019-04-01T06:32:47.012Z,21.83
2019-04-01T06:33:46.999Z,21.90
2019-04-01T06:34:52.638Z,21.83
2019-04-01T06:35:47.986Z,21.82
2019-04-01T06:36:46.965Z,21.80
2019-04-01T06:37:46.957Z,21.91
2019-04-01T06:38:46.939Z,21.86
2019-04-01T06:39:46.930Z,21.84
2019-04-01T06:40:46.961Z,21.90
2019-04-01T06:41:46.908Z,21.91
2019-04-01T06:42:46.897Z,21.94
2019-04-01T06:43:46.889Z,21.98
2019-04-01T06:44:46.876Z,22.05
2019-04-01T06:45:46.864Z,21.96
2019-04-01T06:46:46.865Z,21.98
2019-04-01T06:47:46.845Z,22.03
2019-04-01T06:48:46.834Z,22.09
2019-04-01T06:49:46.844Z,22.06
2019-04-01T06:50:46.817Z,22.15
2019-04-01T06:51:46.838Z,22.17
2019-04-01T06:52:46.789Z,22.17
2019-04-01T06:53:46.778Z,22.21
2019-04-01T06:54:46.775Z,22.27
2019-04-01T06:55:46.755Z,22.24
2019-04-01T06:56:46.743Z,22.28
2019-04-01T06:57:46.755Z,22.33
2019-04-01T06:58:56.847Z,22.37
2019-04-01T06:59:46.716Z,22.37
2019-04-01T07:00:46.699Z,22.43
2019-04-01T07:01:46.687Z,22.37
2019-04-01T07:02:46.678Z,22.47
2019-04-01T07:03:46.684Z,22.49
2019-04-01T07:04:46.666Z,22.45
2019-04-01T07:05:46.646Z,22.45
2019-04-01T07:06:46.632Z,22.46
2019-04-01T07:07:46.626Z,22.54
2019-04-01T07:08:46.614Z,22.51
2019-04-01T07:09:46.613Z,22.54
2019-04-01T07:10:46.593Z,22.49
2019-04-01T07:11:46.663Z,22.52
2019-04-01T07:12:46.587Z,22.49
2019-04-01T07:13:46.557Z,22.61
2019-04-01T07:14:46.592Z,22.47
2019-04-01T07:15:46.537Z,22.60
2019-04-01T07:16:46.521Z,22.51
2019-04-01T07:17:46.516Z,22.54
2019-04-01T07:18:46.501Z,22.62
2019-04-01T07:19:46.498Z,22.52
2019-04-01T07:20:46.522Z,22.55
2019-04-01T07:21:46.469Z,22.60
2019-04-01T07:22:46.462Z,22.55
2019-04-01T07:23:46.457Z,22.52
2019-04-01T07:24:46.473Z,22.57
2019-04-01T07:25:46.427Z,22.55
2019-04-01T07:26:46.415Z,22.60
2019-04-01T07:27:46.406Z,22.51
2019-04-01T07:28:46.390Z,22.61
2019-04-01T07:29:57.367Z,22.58
2019-04-01T07:30:46.417Z,22.62
2019-04-01T07:31:46.361Z,22.60
2019-04-01T07:32:46.362Z,22.55
2019-04-01T07:33:46.335Z,22.51
2019-04-01T07:34:46.330Z,22.61
2019-04-01T07:35:46.755Z,22.61
2019-04-01T07:36:46.344Z,22.61
2019-04-01T07:37:46.293Z,22.60
2019-04-01T07:38:46.287Z,22.60
2019-04-01T07:39:46.270Z,22.57
2019-04-01T07:40:46.260Z,22.61
2019-04-01T07:41:46.252Z,22.61
2019-04-01T07:42:46.250Z,22.60
2019-04-01T07:43:46.229Z,22.58
2019-04-01T07:44:46.303Z,22.64
2019-04-01T07:45:46.204Z,22.55
2019-04-01T07:46:46.193Z,22.61
2019-04-01T07:47:46.194Z,22.65
2019-04-01T07:48:46.174Z,22.62
2019-04-01T07:49:46.159Z,22.60
2019-04-01T07:50:46.154Z,22.60
2019-04-01T07:51:46.137Z,22.62
2019-04-01T07:52:46.152Z,22.62
2019-04-01T07:53:46.118Z,22.58
2019-04-01T07:54:46.110Z,22.57
2019-04-01T07:55:46.090Z,22.64
2019-04-01T07:56:46.085Z,22.62
2019-04-01T07:57:46.071Z,22.61
2019-04-01T07:58:46.092Z,22.61
2019-04-01T07:59:46.052Z,22.65
2019-04-01T08:00:56.289Z,22.58
2019-04-01T08:01:46.028Z,22.62
2019-04-01T08:02:48.866Z,22.72
2019-04-01T08:03:46.007Z,22.68
2019-04-01T08:04:46.001Z,22.64
2019-04-01T08:05:45.980Z,22.61
2019-04-01T08:06:45.973Z,22.68
2019-04-01T08:07:45.959Z,22.65
2019-04-01T08:08:46.349Z,22.68
2019-04-01T08:09:45.954Z,22.64
2019-04-01T08:10:45.922Z,22.64
2019-04-01T08:11:45.916Z,22.62
2019-04-01T08:12:45.910Z,22.64
2019-04-01T08:13:45.889Z,22.64
2019-04-01T08:14:45.886Z,22.72
2019-04-01T08:15:45.903Z,22.62
2019-04-01T08:16:45.859Z,22.75
2019-04-01T08:17:45.848Z,22.68
2019-04-01T08:18:45.833Z,22.68
2019-04-01T08:19:45.828Z,22.65
2019-04-01T08:20:45.816Z,22.77
2019-04-01T08:21:45.813Z,22.76
2019-04-01T08:22:45.792Z,22.76
2019-04-01T08:23:45.785Z,22.76
2019-04-01T08:24:45.773Z,22.73
2019-04-01T08:25:47.907Z,22.75
2019-04-01T08:26:45.759Z,22.73
2019-04-01T08:27:45.738Z,22.75
2019-04-01T08:28:45.733Z,22.76
2019-04-01T08:29:45.721Z,22.77
2019-04-01T08:30:45.708Z,22.73
2019-04-01T08:31:55.950Z,22.75
2019-04-01T08:32:45.688Z,22.76
2019-04-01T08:33:45.674Z,22.76
2019-04-01T08:34:45.661Z,22.79
2019-04-01T08:35:45.651Z,22.76
2019-04-01T08:36:45.637Z,22.73
2019-04-01T08:37:45.640Z,22.70
2019-04-01T08:38:45.618Z,22.73
2019-04-01T08:39:45.609Z,22.73
2019-04-01T08:40:45.593Z,22.75
2019-04-01T08:41:45.585Z,22.77
2019-04-01T08:42:48.816Z,22.82
2019-04-01T08:43:45.588Z,22.76
2019-04-01T08:44:45.553Z,22.80
2019-04-01T08:45:45.548Z,22.86
2019-04-01T08:46:45.531Z,22.76
2019-04-01T08:47:45.526Z,22.82
2019-04-01T08:48:45.512Z,22.82
2019-04-01T08:49:45.544Z,22.82
2019-04-01T08:50:45.491Z,22.79
2019-04-01T08:51:45.480Z,22.88
2019-04-01T08:52:45.471Z,22.85
2019-04-01T08:53:45.458Z,22.90
2019-04-01T08:54:45.444Z,22.91
2019-04-01T08:55:45.437Z,22.85
2019-04-01T08:56:45.430Z,22.83
2019-04-01T08:57:45.415Z,22.82
2019-04-01T08:58:45.439Z,22.80
2019-04-01T08:59:45.389Z,22.83
2019-04-01T09:00:45.381Z,22.85
2019-04-01T09:01:45.365Z,22.92
2019-04-01T09:02:57.098Z,22.83
2019-04-01T09:03:45.343Z,22.88
2019-04-01T09:04:45.374Z,22.85
2019-04-01T09:05:45.368Z,22.85
2019-04-01T09:06:45.314Z,22.88
2019-04-01T09:07:45.301Z,22.83
2019-04-01T09:08:45.291Z,22.86
2019-04-01T09:09:45.281Z,22.85
2019-04-01T09:10:45.274Z,22.85
2019-04-01T09:11:45.293Z,22.90
2019-04-01T09:12:45.242Z,22.91
2019-04-01T09:13:45.970Z,22.85
2019-04-01T09:14:45.223Z,22.91
2019-04-01T09:15:45.289Z,22.94
2019-04-01T09:16:45.209Z,22.92
2019-04-01T09:17:45.216Z,22.91
2019-04-01T09:18:45.178Z,22.91
2019-04-01T09:19:45.168Z,22.92
2019-04-01T09:20:45.156Z,22.97
2019-04-01T09:21:45.146Z,22.91
2019-04-01T09:22:45.137Z,22.98
2019-04-01T09:23:45.145Z,22.95
2019-04-01T09:24:45.108Z,22.92
2019-04-01T09:25:45.100Z,22.94
2019-04-01T09:26:45.098Z,23.00
2019-04-01T09:27:45.077Z,22.94
2019-04-01T09:28:45.065Z,22.91
2019-04-01T09:29:45.080Z,22.91
2019-04-01T09:30:45.042Z,22.92
2019-04-01T09:31:45.035Z,22.95
2019-04-01T09:32:45.019Z,22.95
2019-04-01T09:33:55.062Z,22.98
2019-04-01T09:34:45.034Z,22.97
2019-04-01T09:35:44.992Z,22.91
2019-04-01T09:36:44.979Z,22.97
2019-04-01T09:37:44.964Z,22.97
2019-04-01T09:38:44.954Z,22.94
2019-04-01T09:39:44.949Z,23.01
2019-04-01T09:40:44.947Z,23.05
2019-04-01T09:41:44.928Z,22.86
2019-04-01T09:42:44.907Z,23.02
2019-04-01T09:43:44.896Z,23.07
2019-04-01T09:44:44.923Z,23.05
2019-04-01T09:45:44.886Z,23.01
2019-04-01T09:46:44.870Z,23.07
2019-04-01T09:47:44.857Z,22.98
2019-04-01T09:48:44.846Z,23.05
2019-04-01T09:49:44.833Z,23.04
2019-04-01T09:50:44.827Z,23.07
2019-04-01T09:51:48.706Z,23.12
2019-04-01T09:52:44.801Z,23.07
2019-04-01T09:53:44.791Z,23.09
2019-04-01T09:54:44.779Z,23.05
2019-04-01T09:55:44.865Z,23.05
2019-04-01T09:56:44.751Z,23.12
2019-04-01T09:57:44.746Z,23.09
2019-04-01T09:58:44.730Z,23.16
2019-04-01T09:59:44.719Z,23.10
2019-04-01T10:00:44.710Z,23.15
2019-04-01T10:01:44.708Z,23.12
2019-04-01T10:02:44.691Z,23.15
2019-04-01T10:03:44.682Z,23.13
2019-04-01T10:04:56.083Z,23.17
2019-04-01T10:05:44.659Z,23.07
2019-04-01T10:06:44.649Z,23.15
2019-04-01T10:07:44.706Z,23.12
2019-04-01T10:08:44.622Z,23.13
2019-04-01T10:09:44.609Z,23.15
2019-04-01T10:10:44.603Z,23.16
2019-04-01T10:11:44.635Z,23.19
2019-04-01T10:12:44.585Z,23.05
2019-04-01T10:13:44.575Z,23.07
2019-04-01T10:14:44.562Z,23.16
2019-04-01T10:15:44.551Z,23.05
2019-04-01T10:16:44.543Z,23.10
2019-04-01T10:17:44.565Z,23.07
2019-04-01T10:18:44.513Z,23.09
2019-04-01T10:19:44.502Z,23.15
2019-04-01T10:20:44.500Z,23.15
2019-04-01T10:21:45.355Z,23.13
2019-04-01T10:22:44.494Z,23.19
2019-04-01T10:23:44.470Z,23.22
2019-04-01T10:24:44.451Z,23.23
2019-04-01T10:25:44.437Z,23.19
2019-04-01T10:26:44.423Z,23.20
2019-04-01T10:27:44.414Z,23.20
2019-04-01T10:28:44.412Z,23.23
2019-04-01T10:29:44.394Z,23.16
2019-04-01T10:30:44.380Z,23.23
2019-04-01T10:31:44.373Z,23.12
2019-04-01T10:32:44.362Z,23.19
2019-04-01T10:33:44.359Z,23.19
2019-04-01T10:34:44.335Z,23.23
2019-04-01T10:35:55.882Z,23.23
2019-04-01T10:36:44.312Z,23.23
2019-04-01T10:37:44.308Z,23.22
2019-04-01T10:38:46.605Z,23.20
2019-04-01T10:39:44.288Z,23.23
2019-04-01T10:40:44.270Z,23.27
2019-04-01T10:41:44.264Z,23.25
2019-04-01T10:42:44.246Z,23.22
2019-04-01T10:43:44.242Z,23.25
2019-04-01T10:44:44.243Z,23.27
2019-04-01T10:45:44.218Z,23.20
2019-04-01T10:46:44.227Z,23.25
2019-04-01T10:47:44.197Z,23.22
2019-04-01T10:48:44.189Z,23.20
2019-04-01T10:49:44.198Z,23.27
2019-04-01T10:50:44.182Z,23.17
2019-04-01T10:51:44.153Z,23.23
2019-04-01T10:52:44.492Z,23.20
2019-04-01T10:53:44.161Z,23.28
2019-04-01T10:54:44.165Z,23.28
2019-04-01T10:55:44.165Z,23.33
2019-04-01T10:56:44.160Z,23.28
2019-04-01T10:57:44.192Z,23.27
2019-04-01T10:58:44.110Z,23.25
2019-04-01T10:59:44.150Z,23.28
2019-04-01T11:00:44.085Z,23.28
2019-04-01T11:01:44.069Z,23.28
2019-04-01T11:02:44.064Z,23.31
2019-04-01T11:03:44.083Z,23.31
2019-04-01T11:04:44.060Z,23.31
2019-04-01T11:05:44.023Z,23.27
2019-04-01T11:06:54.243Z,23.31
2019-04-01T11:07:44.009Z,23.33
2019-04-01T11:08:43.959Z,23.28
2019-04-01T11:09:43.948Z,23.31
2019-04-01T11:10:43.969Z,23.33
2019-04-01T11:11:43.920Z,23.31
2019-04-01T11:12:43.906Z,23.33
2019-04-01T11:13:43.900Z,23.31
2019-04-01T11:14:43.887Z,23.28
2019-04-01T11:15:43.873Z,23.31
2019-04-01T11:16:43.876Z,23.31
2019-04-01T11:17:44.052Z,23.33
2019-04-01T11:18:43.844Z,23.32
2019-04-01T11:19:43.827Z,23.33
2019-04-01T11:20:43.821Z,23.31
2019-04-01T11:21:43.842Z,23.33
2019-04-01T11:22:43.798Z,23.31
2019-04-01T11:23:43.786Z,23.31
2019-04-01T11:24:43.777Z,23.36
2019-04-01T11:25:43.765Z,23.28
2019-04-01T11:26:43.751Z,23.32
2019-04-01T11:27:43.745Z,23.42
2019-04-01T11:28:43.732Z,23.32
2019-04-01T11:29:43.734Z,23.33
2019-04-01T11:30:43.735Z,23.38
2019-04-01T11:31:43.697Z,23.35
2019-04-01T11:32:43.765Z,23.36
2019-04-01T11:33:43.693Z,23.39
2019-04-01T11:34:43.679Z,23.40
2019-04-01T11:35:43.651Z,23.38
2019-04-01T11:36:43.645Z,23.39
2019-04-01T11:37:54.232Z,23.46
2019-04-01T11:38:43.667Z,23.36
2019-04-01T11:39:43.617Z,23.39
2019-04-01T11:40:44.110Z,23.40
2019-04-01T11:41:43.614Z,23.42
2019-04-01T11:42:43.648Z,23.36
2019-04-01T11:43:43.591Z,23.36
2019-04-01T11:44:43.560Z,23.32
2019-04-01T11:45:43.556Z,23.40
2019-04-01T11:46:43.566Z,23.36
2019-04-01T11:47:43.570Z,23.36
2019-04-01T11:48:43.521Z,23.36
2019-04-01T11:49:43.557Z,23.32
2019-04-01T11:50:43.483Z,23.38
2019-04-01T11:51:43.505Z,23.35
2019-04-01T11:52:43.470Z,23.38
2019-04-01T11:53:43.451Z,23.32
2019-04-01T11:54:43.471Z,23.28
2019-04-01T11:55:43.425Z,23.35
2019-04-01T11:56:43.416Z,23.33
2019-04-01T11:57:43.404Z,23.35
2019-04-01T11:58:43.391Z,23.33
2019-04-01T11:59:43.385Z,23.35
2019-04-01T12:00:43.381Z,23.33
2019-04-01T12:01:43.354Z,23.33
2019-04-01T12:02:43.344Z,23.36
2019-04-01T12:03:43.333Z,23.32
2019-04-01T12:04:43.323Z,23.36
2019-04-01T12:05:43.321Z,23.32
2019-04-01T12:06:43.305Z,23.28
2019-04-01T12:07:43.290Z,23.31
2019-04-01T12:08:54.938Z,23.25
2019-04-01T12:09:43.267Z,23.31
2019-04-01T12:10:43.270Z,23.27
2019-04-01T12:11:43.256Z,23.27
2019-04-01T12:12:43.237Z,23.23
2019-04-01T12:13:43.221Z,23.23
2019-04-01T12:14:43.211Z,23.22
2019-04-01T12:15:43.234Z,23.25
2019-04-01T12:16:43.193Z,23.22
2019-04-01T12:17:43.185Z,23.22
2019-04-01T12:18:44.668Z,23.25
2019-04-01T12:19:43.156Z,23.20
2019-04-01T12:20:43.146Z,23.25
2019-04-01T12:21:43.143Z,23.19
2019-04-01T12:22:45.642Z,23.23
2019-04-01T12:23:43.109Z,23.23
2019-04-01T12:24:43.101Z,23.17
2019-04-01T12:25:43.092Z,23.19
2019-04-01T12:26:43.086Z,23.17
2019-04-01T12:27:43.068Z,23.20
2019-04-01T12:28:43.631Z,23.22
2019-04-01T12:29:43.043Z,23.13
2019-04-01T12:30:43.027Z,23.19
2019-04-01T12:31:43.038Z,23.15
2019-04-01T12:32:43.007Z,23.22
2019-04-01T12:33:42.999Z,23.10
2019-04-01T12:34:42.988Z,23.12
2019-04-01T12:35:42.973Z,23.10
2019-04-01T12:36:42.963Z,23.10
2019-04-01T12:37:42.961Z,23.12
2019-04-01T12:38:42.938Z,23.12
2019-04-01T12:39:53.067Z,23.07
2019-04-01T12:40:42.917Z,23.13
2019-04-01T12:41:42.911Z,23.15
2019-04-01T12:42:42.911Z,23.20
2019-04-01T12:43:42.889Z,23.10
2019-04-01T12:44:42.873Z,23.02
2019-04-01T12:45:42.862Z,23.20
2019-04-01T12:46:42.849Z,23.16
2019-04-01T12:47:43.585Z,23.15
2019-04-01T12:48:42.836Z,23.22
2019-04-01T12:49:42.820Z,23.10
2019-04-01T12:50:42.812Z,23.15
2019-04-01T12:51:42.795Z,23.17
2019-04-01T12:52:42.785Z,23.16